ベルリン/テーゲル の空港の天気 - METARとTAF

ベルリン・テーゲル国際空港 ( EDDT / TXL ) - ドイツ ベルリン
飛行場実況気象(Metar)
観測時間07/02 15:20 CEST (07/02 13:20 UTC)
風向・風速西 5m/s
視程10km以上
天気現象
全天の4割程度の雲 雲底高度 1340m
気温24℃
湿度47%
気圧1009hPa
METAREDDT 021320Z 28010KT 9999 SCT044TCU 24/12 Q1009 NOSIG
過去の天気等 Google飛行場航空写真 Wunderground天気予報

過去48時間のMETAR

飛行場予報(TAF)
発表時間: 7/02 13:00 CEST (7/02 11:00 UTC)
予報対象時間: 2日14時 CEST ~ 3日14時 CEST
風向・風速西 5m/s
視程10km以上
全天の4割程度の雲 雲底高度 910m
2日19時 CEST ~ 2日21時 CEST に徐々に
風向・風速西 2m/s
2日22時 CEST ~ 3日3時 CEST に一時的に
天気現象
3日4時 CEST ~ 3日8時 CEST に 確率 30% で一時的に
全天の8割程度の雲 雲底高度 240m
3日6時 CEST ~ 3日8時 CEST に徐々に
風向・風速西 5m/s
TAF EDDT 021100Z 0212/0312 26009KT 9999 SCT030
BECMG 0217/0219 28004KT
TEMPO 0220/0301 RA
PROB30 TEMPO 0302/0306 BKN008
BECMG 0304/0306 28009KT